sensor_id;sensor_type;location;lat;lon;timestamp;pressure;altitude;pressure_sealevel;temperature;humidity
59443;BME280;45247;47.466;19.004;2022-12-18T00:00:06;101284.38;;;-4.59;100.00
59443;BME280;45247;47.466;19.004;2022-12-18T00:02:34;101282.50;;;-4.66;100.00
59443;BME280;45247;47.466;19.004;2022-12-18T00:05:03;101290.91;;;-4.73;100.00
59443;BME280;45247;47.466;19.004;2022-12-18T00:07:33;101292.66;;;-4.72;100.00
59443;BME280;45247;47.466;19.004;2022-12-18T00:10:01;101302.06;;;-4.74;100.00
59443;BME280;45247;47.466;19.004;2022-12-18T00:12:29;101302.72;;;-4.81;100.00
59443;BME280;45247;47.466;19.004;2022-12-18T00:14:57;101307.75;;;-4.87;100.00
59443;BME280;45247;47.466;19.004;2022-12-18T00:17:25;101319.16;;;-4.78;100.00
59443;BME280;45247;47.466;19.004;2022-12-18T00:19:53;101318.41;;;-4.72;100.00
59443;BME280;45247;47.466;19.004;2022-12-18T00:22:21;101319.88;;;-4.83;100.00
59443;BME280;45247;47.466;19.004;2022-12-18T00:24:51;101328.13;;;-4.62;100.00
59443;BME280;45247;47.466;19.004;2022-12-18T00:27:19;101336.50;;;-4.70;100.00
59443;BME280;45247;47.466;19.004;2022-12-18T00:29:48;101331.81;;;-4.85;100.00
59443;BME280;45247;47.466;19.004;2022-12-18T00:32:16;101341.03;;;-4.95;100.00
59443;BME280;45247;47.466;19.004;2022-12-18T00:34:45;101349.47;;;-5.00;100.00
59443;BME280;45247;47.466;19.004;2022-12-18T00:37:13;101344.59;;;-4.90;100.00
59443;BME280;45247;47.466;19.004;2022-12-18T00:39:47;101339.53;;;-4.85;100.00
59443;BME280;45247;47.466;19.004;2022-12-18T00:42:17;101340.38;;;-4.86;100.00
59443;BME280;45247;47.466;19.004;2022-12-18T00:45:03;101348.16;;;-4.85;100.00
59443;BME280;45247;47.466;19.004;2022-12-18T00:47:38;101354.16;;;-4.84;100.00
59443;BME280;45247;47.466;19.004;2022-12-18T00:50:07;101355.00;;;-4.85;100.00
59443;BME280;45247;47.466;19.004;2022-12-18T00:52:36;101359.41;;;-4.81;100.00
59443;BME280;45247;47.466;19.004;2022-12-18T00:55:04;101371.22;;;-4.89;100.00
59443;BME280;45247;47.466;19.004;2022-12-18T00:57:34;101370.94;;;-5.00;100.00
59443;BME280;45247;47.466;19.004;2022-12-18T01:00:03;101374.94;;;-5.10;100.00
59443;BME280;45247;47.466;19.004;2022-12-18T01:02:31;101376.28;;;-5.24;100.00
59443;BME280;45247;47.466;19.004;2022-12-18T01:04:59;101382.03;;;-5.33;100.00
59443;BME280;45247;47.466;19.004;2022-12-18T01:07:28;101385.81;;;-5.20;100.00
59443;BME280;45247;47.466;19.004;2022-12-18T01:09:56;101387.19;;;-5.33;100.00
59443;BME280;45247;47.466;19.004;2022-12-18T01:12:24;101387.06;;;-5.37;100.00
59443;BME280;45247;47.466;19.004;2022-12-18T01:14:53;101391.13;;;-5.44;100.00
59443;BME280;45247;47.466;19.004;2022-12-18T01:17:22;101396.34;;;-5.42;100.00
59443;BME280;45247;47.466;19.004;2022-12-18T01:19:50;101402.94;;;-5.52;100.00
59443;BME280;45247;47.466;19.004;2022-12-18T01:22:18;101405.38;;;-5.57;100.00
59443;BME280;45247;47.466;19.004;2022-12-18T01:24:46;101403.53;;;-5.61;100.00
59443;BME280;45247;47.466;19.004;2022-12-18T01:27:15;101393.06;;;-5.65;100.00
59443;BME280;45247;47.466;19.004;2022-12-18T01:29:43;101402.59;;;-5.63;100.00
59443;BME280;45247;47.466;19.004;2022-12-18T01:32:12;101406.75;;;-5.68;100.00
59443;BME280;45247;47.466;19.004;2022-12-18T01:34:40;101414.31;;;-5.72;100.00
59443;BME280;45247;47.466;19.004;2022-12-18T01:37:08;101409.09;;;-5.74;100.00
59443;BME280;45247;47.466;19.004;2022-12-18T01:39:37;101412.50;;;-5.75;100.00
59443;BME280;45247;47.466;19.004;2022-12-18T01:42:10;101413.34;;;-5.76;100.00
59443;BME280;45247;47.466;19.004;2022-12-18T01:45:01;101418.31;;;-5.82;100.00
59443;BME280;45247;47.466;19.004;2022-12-18T01:47:35;101418.38;;;-5.79;100.00
59443;BME280;45247;47.466;19.004;2022-12-18T01:50:08;101419.78;;;-5.62;100.00
59443;BME280;45247;47.466;19.004;2022-12-18T01:52:36;101429.19;;;-5.62;100.00
59443;BME280;45247;47.466;19.004;2022-12-18T01:55:06;101430.63;;;-5.72;100.00
59443;BME280;45247;47.466;19.004;2022-12-18T01:57:34;101424.25;;;-5.83;100.00
59443;BME280;45247;47.466;19.004;2022-12-18T02:00:08;101429.25;;;-5.88;100.00
59443;BME280;45247;47.466;19.004;2022-12-18T02:02:38;101433.53;;;-5.88;100.00
59443;BME280;45247;47.466;19.004;2022-12-18T02:05:07;101437.84;;;-5.87;100.00
59443;BME280;45247;47.466;19.004;2022-12-18T02:07:42;101436.16;;;-5.87;100.00
59443;BME280;45247;47.466;19.004;2022-12-18T02:10:18;101443.81;;;-5.88;100.00
59443;BME280;45247;47.466;19.004;2022-12-18T02:12:51;101440.34;;;-5.90;100.00
59443;BME280;45247;47.466;19.004;2022-12-18T02:15:26;101448.97;;;-5.88;100.00
59443;BME280;45247;47.466;19.004;2022-12-18T02:18:02;101450.63;;;-5.90;100.00
59443;BME280;45247;47.466;19.004;2022-12-18T02:20:35;101448.84;;;-5.93;100.00
59443;BME280;45247;47.466;19.004;2022-12-18T02:23:14;101456.56;;;-5.91;100.00
59443;BME280;45247;47.466;19.004;2022-12-18T02:26:02;101448.72;;;-5.97;100.00
59443;BME280;45247;47.466;19.004;2022-12-18T02:28:36;101448.59;;;-6.00;100.00
59443;BME280;45247;47.466;19.004;2022-12-18T02:31:09;101456.00;;;-6.11;100.00
59443;BME280;45247;47.466;19.004;2022-12-18T02:33:40;101458.19;;;-6.22;100.00
59443;BME280;45247;47.466;19.004;2022-12-18T02:36:12;101465.28;;;-6.15;100.00
59443;BME280;45247;47.466;19.004;2022-12-18T02:38:43;101474.56;;;-6.20;100.00
59443;BME280;45247;47.466;19.004;2022-12-18T02:41:14;101474.59;;;-6.18;100.00
59443;BME280;45247;47.466;19.004;2022-12-18T02:43:47;101476.41;;;-6.16;100.00
59443;BME280;45247;47.466;19.004;2022-12-18T02:46:27;101483.31;;;-6.13;100.00
59443;BME280;45247;47.466;19.004;2022-12-18T02:49:02;101481.63;;;-6.13;100.00
59443;BME280;45247;47.466;19.004;2022-12-18T02:51:38;101478.28;;;-6.10;100.00
59443;BME280;45247;47.466;19.004;2022-12-18T02:54:10;101481.63;;;-6.13;100.00
59443;BME280;45247;47.466;19.004;2022-12-18T02:56:47;101491.09;;;-6.12;100.00
59443;BME280;45247;47.466;19.004;2022-12-18T02:59:21;101494.47;;;-6.13;100.00
59443;BME280;45247;47.466;19.004;2022-12-18T03:01:57;101499.53;;;-6.16;100.00
59443;BME280;45247;47.466;19.004;2022-12-18T03:04:30;101500.34;;;-6.17;100.00
59443;BME280;45247;47.466;19.004;2022-12-18T03:07:05;101502.81;;;-6.20;100.00
59443;BME280;45247;47.466;19.004;2022-12-18T03:09:38;101506.94;;;-6.25;100.00
59443;BME280;45247;47.466;19.004;2022-12-18T03:12:14;101517.69;;;-6.35;100.00
59443;BME280;45247;47.466;19.004;2022-12-18T03:14:54;101506.25;;;-6.45;100.00
59443;BME280;45247;47.466;19.004;2022-12-18T03:17:27;101511.38;;;-6.45;100.00
59443;BME280;45247;47.466;19.004;2022-12-18T03:19:58;101512.38;;;-6.41;100.00
59443;BME280;45247;47.466;19.004;2022-12-18T03:22:29;101519.13;;;-6.43;100.00
59443;BME280;45247;47.466;19.004;2022-12-18T03:25:00;101524.06;;;-6.49;100.00
59443;BME280;45247;47.466;19.004;2022-12-18T03:27:33;101523.84;;;-6.56;100.00
59443;BME280;45247;47.466;19.004;2022-12-18T03:30:07;101539.94;;;-6.60;100.00
59443;BME280;45247;47.466;19.004;2022-12-18T03:32:41;101537.28;;;-6.63;100.00
59443;BME280;45247;47.466;19.004;2022-12-18T03:35:12;101539.94;;;-6.60;100.00
59443;BME280;45247;47.466;19.004;2022-12-18T03:37:41;101539.03;;;-6.38;100.00
59443;BME280;45247;47.466;19.004;2022-12-18T03:40:10;101539.81;;;-6.40;100.00
59443;BME280;45247;47.466;19.004;2022-12-18T03:42:46;101549.75;;;-6.49;100.00
59443;BME280;45247;47.466;19.004;2022-12-18T03:45:22;101549.63;;;-6.52;100.00
59443;BME280;45247;47.466;19.004;2022-12-18T03:47:58;101552.81;;;-6.36;100.00
59443;BME280;45247;47.466;19.004;2022-12-18T03:50:36;101547.94;;;-6.28;100.00
59443;BME280;45247;47.466;19.004;2022-12-18T03:53:14;101554.78;;;-6.28;100.00
59443;BME280;45247;47.466;19.004;2022-12-18T03:55:45;101553.78;;;-6.32;100.00
59443;BME280;45247;47.466;19.004;2022-12-18T03:58:19;101556.97;;;-6.39;100.00
59443;BME280;45247;47.466;19.004;2022-12-18T04:00:50;101550.09;;;-6.40;100.00
59443;BME280;45247;47.466;19.004;2022-12-18T04:03:20;101557.50;;;-6.48;100.00
59443;BME280;45247;47.466;19.004;2022-12-18T04:05:54;101566.03;;;-6.49;100.00
59443;BME280;45247;47.466;19.004;2022-12-18T04:08:23;101570.16;;;-6.54;100.00
59443;BME280;45247;47.466;19.004;2022-12-18T04:10:52;101565.56;;;-6.63;100.00
59443;BME280;45247;47.466;19.004;2022-12-18T04:13:28;101572.13;;;-6.69;100.00
59443;BME280;45247;47.466;19.004;2022-12-18T04:15:57;101566.13;;;-6.70;100.00
59443;BME280;45247;47.466;19.004;2022-12-18T04:18:25;101586.47;;;-6.76;100.00
59443;BME280;45247;47.466;19.004;2022-12-18T04:20:54;101565.81;;;-6.79;100.00
59443;BME280;45247;47.466;19.004;2022-12-18T04:23:22;101573.56;;;-6.77;100.00
59443;BME280;45247;47.466;19.004;2022-12-18T04:25:50;101575.25;;;-6.78;100.00
59443;BME280;45247;47.466;19.004;2022-12-18T04:28:18;101577.00;;;-6.77;100.00
59443;BME280;45247;47.466;19.004;2022-12-18T04:30:50;101577.00;;;-6.77;100.00
59443;BME280;45247;47.466;19.004;2022-12-18T04:33:18;101586.34;;;-6.79;100.00
59443;BME280;45247;47.466;19.004;2022-12-18T04:35:46;101574.34;;;-6.80;100.00
59443;BME280;45247;47.466;19.004;2022-12-18T04:38:14;101591.13;;;-6.88;100.00
59443;BME280;45247;47.466;19.004;2022-12-18T04:40:43;101593.53;;;-6.93;100.00
59443;BME280;45247;47.466;19.004;2022-12-18T04:43:11;101590.78;;;-6.97;100.00
59443;BME280;45247;47.466;19.004;2022-12-18T04:45:39;101598.38;;;-7.00;100.00
59443;BME280;45247;47.466;19.004;2022-12-18T04:48:09;101609.31;;;-7.04;100.00
59443;BME280;45247;47.466;19.004;2022-12-18T04:50:37;101605.81;;;-7.07;100.00
59443;BME280;45247;47.466;19.004;2022-12-18T04:53:06;101612.03;;;-7.01;100.00
59443;BME280;45247;47.466;19.004;2022-12-18T04:55:35;101620.06;;;-6.92;100.00
59443;BME280;45247;47.466;19.004;2022-12-18T04:58:04;101624.94;;;-6.98;100.00
59443;BME280;45247;47.466;19.004;2022-12-18T05:00:32;101622.22;;;-7.03;100.00
59443;BME280;45247;47.466;19.004;2022-12-18T05:03:01;101617.72;;;-7.09;100.00
59443;BME280;45247;47.466;19.004;2022-12-18T05:05:31;101622.84;;;-7.09;100.00
59443;BME280;45247;47.466;19.004;2022-12-18T05:07:59;101633.50;;;-7.20;100.00
59443;BME280;45247;47.466;19.004;2022-12-18T05:10:28;101638.53;;;-7.23;100.00
59443;BME280;45247;47.466;19.004;2022-12-18T05:13:03;101632.28;;;-7.30;100.00
59443;BME280;45247;47.466;19.004;2022-12-18T05:15:32;101641.28;;;-7.40;100.00
59443;BME280;45247;47.466;19.004;2022-12-18T05:18:01;101635.09;;;-7.45;100.00
59443;BME280;45247;47.466;19.004;2022-12-18T05:20:31;101630.75;;;-7.46;100.00
59443;BME280;45247;47.466;19.004;2022-12-18T05:22:59;101643.69;;;-7.44;100.00
59443;BME280;45247;47.466;19.004;2022-12-18T05:25:27;101639.34;;;-7.45;100.00
59443;BME280;45247;47.466;19.004;2022-12-18T05:27:56;101642.03;;;-7.42;100.00
59443;BME280;45247;47.466;19.004;2022-12-18T05:30:25;101649.19;;;-7.35;100.00
59443;BME280;45247;47.466;19.004;2022-12-18T05:32:54;101650.91;;;-7.34;100.00
59443;BME280;45247;47.466;19.004;2022-12-18T05:35:22;101647.53;;;-7.33;100.00
59443;BME280;45247;47.466;19.004;2022-12-18T05:37:51;101652.63;;;-7.35;100.00
59443;BME280;45247;47.466;19.004;2022-12-18T05:40:20;101662.06;;;-7.34;100.00
59443;BME280;45247;47.466;19.004;2022-12-18T05:42:48;101667.28;;;-7.32;100.00
59443;BME280;45247;47.466;19.004;2022-12-18T05:45:16;101668.06;;;-7.33;100.00
59443;BME280;45247;47.466;19.004;2022-12-18T05:47:44;101668.06;;;-7.33;100.00
59443;BME280;45247;47.466;19.004;2022-12-18T05:50:12;101679.28;;;-7.31;100.00
59443;BME280;45247;47.466;19.004;2022-12-18T05:52:40;101678.31;;;-7.33;100.00
59443;BME280;45247;47.466;19.004;2022-12-18T05:55:10;101677.41;;;-7.35;100.00
59443;BME280;45247;47.466;19.004;2022-12-18T05:57:38;101679.69;;;-7.41;100.00
59443;BME280;45247;47.466;19.004;2022-12-18T06:00:07;101678.75;;;-7.43;100.00
59443;BME280;45247;47.466;19.004;2022-12-18T06:02:36;101677.91;;;-7.44;100.00
59443;BME280;45247;47.466;19.004;2022-12-18T06:05:05;101680.78;;;-7.36;100.00
59443;BME280;45247;47.466;19.004;2022-12-18T06:07:33;101685.78;;;-7.39;100.00
59443;BME280;45247;47.466;19.004;2022-12-18T06:10:01;101690.72;;;-7.44;100.00
59443;BME280;45247;47.466;19.004;2022-12-18T06:12:31;101691.44;;;-7.46;100.00
59443;BME280;45247;47.466;19.004;2022-12-18T06:15:00;101691.44;;;-7.46;100.00
59443;BME280;45247;47.466;19.004;2022-12-18T06:17:28;101686.47;;;-7.43;100.00
59443;BME280;45247;47.466;19.004;2022-12-18T06:19:57;101687.72;;;-7.34;100.00
59443;BME280;45247;47.466;19.004;2022-12-18T06:22:25;101695.22;;;-7.38;100.00
59443;BME280;45247;47.466;19.004;2022-12-18T06:24:53;101702.03;;;-7.39;100.00
59443;BME280;45247;47.466;19.004;2022-12-18T06:27:21;101703.59;;;-7.42;100.00
59443;BME280;45247;47.466;19.004;2022-12-18T06:29:51;101712.13;;;-7.43;100.00
59443;BME280;45247;47.466;19.004;2022-12-18T06:32:19;101725.69;;;-7.46;100.00
59443;BME280;45247;47.466;19.004;2022-12-18T06:34:47;101726.53;;;-7.45;100.00
59443;BME280;45247;47.466;19.004;2022-12-18T06:37:15;101717.09;;;-7.46;100.00
59443;BME280;45247;47.466;19.004;2022-12-18T06:39:43;101734.19;;;-7.47;100.00
59443;BME280;45247;47.466;19.004;2022-12-18T06:42:12;101727.22;;;-7.49;100.00
59443;BME280;45247;47.466;19.004;2022-12-18T06:44:40;101740.06;;;-7.49;100.00
59443;BME280;45247;47.466;19.004;2022-12-18T06:47:10;101739.38;;;-7.45;100.00
59443;BME280;45247;47.466;19.004;2022-12-18T06:49:38;101736.06;;;-7.43;100.00
59443;BME280;45247;47.466;19.004;2022-12-18T06:52:06;101741.25;;;-7.41;100.00
59443;BME280;45247;47.466;19.004;2022-12-18T06:54:34;101748.16;;;-7.40;100.00
59443;BME280;45247;47.466;19.004;2022-12-18T06:57:03;101743.78;;;-7.43;100.00
59443;BME280;45247;47.466;19.004;2022-12-18T06:59:31;101753.59;;;-7.33;100.00
59443;BME280;45247;47.466;19.004;2022-12-18T07:01:59;101767.72;;;-7.23;100.00
59443;BME280;45247;47.466;19.004;2022-12-18T07:04:29;101767.28;;;-7.13;100.00
59443;BME280;45247;47.466;19.004;2022-12-18T07:06:58;101770.22;;;-7.03;100.00
59443;BME280;45247;47.466;19.004;2022-12-18T07:09:26;101770.72;;;-6.91;100.00
59443;BME280;45247;47.466;19.004;2022-12-18T07:11:57;101774.63;;;-6.80;100.00
59443;BME280;45247;47.466;19.004;2022-12-18T07:14:25;101778.47;;;-6.69;100.00
59443;BME280;45247;47.466;19.004;2022-12-18T07:16:54;101777.09;;;-6.61;100.00
59443;BME280;45247;47.466;19.004;2022-12-18T07:19:23;101780.16;;;-6.48;100.00
59443;BME280;45247;47.466;19.004;2022-12-18T07:21:53;101799.44;;;-6.37;100.00
59443;BME280;45247;47.466;19.004;2022-12-18T07:24:21;101796.28;;;-6.30;100.00
59443;BME280;45247;47.466;19.004;2022-12-18T07:26:49;101798.25;;;-6.24;100.00
59443;BME280;45247;47.466;19.004;2022-12-18T07:29:17;101804.59;;;-6.15;100.00
59443;BME280;45247;47.466;19.004;2022-12-18T07:31:45;101816.88;;;-6.08;100.00
59443;BME280;45247;47.466;19.004;2022-12-18T07:34:14;101817.09;;;-6.01;100.00
59443;BME280;45247;47.466;19.004;2022-12-18T07:36:42;101819.16;;;-5.91;100.00
59443;BME280;45247;47.466;19.004;2022-12-18T07:39:12;101817.66;;;-5.86;100.00
59443;BME280;45247;47.466;19.004;2022-12-18T07:41:40;101818.88;;;-5.76;100.00
59443;BME280;45247;47.466;19.004;2022-12-18T07:44:13;101825.00;;;-5.73;100.00
59443;BME280;45247;47.466;19.004;2022-12-18T07:46:41;101828.75;;;-5.65;100.00
59443;BME280;45247;47.466;19.004;2022-12-18T07:49:09;101830.66;;;-5.59;100.00
59443;BME280;45247;47.466;19.004;2022-12-18T07:51:37;101830.81;;;-5.55;100.00
59443;BME280;45247;47.466;19.004;2022-12-18T07:54:05;101836.09;;;-5.51;100.00
59443;BME280;45247;47.466;19.004;2022-12-18T07:56:35;101845.72;;;-5.46;100.00
59443;BME280;45247;47.466;19.004;2022-12-18T07:59:03;101851.06;;;-5.40;100.00
59443;BME280;45247;47.466;19.004;2022-12-18T08:01:31;101852.31;;;-5.30;100.00
59443;BME280;45247;47.466;19.004;2022-12-18T08:03:59;101860.25;;;-5.24;100.00
59443;BME280;45247;47.466;19.004;2022-12-18T08:06:27;101863.91;;;-5.17;100.00
59443;BME280;45247;47.466;19.004;2022-12-18T08:08:56;101858.22;;;-5.09;100.00
59443;BME280;45247;47.466;19.004;2022-12-18T08:11:25;101867.84;;;-5.03;100.00
59443;BME280;45247;47.466;19.004;2022-12-18T08:13:55;101862.25;;;-4.91;100.00
59443;BME280;45247;47.466;19.004;2022-12-18T08:16:24;101867.72;;;-4.82;100.00
59443;BME280;45247;47.466;19.004;2022-12-18T08:18:53;101867.13;;;-4.75;100.00
59443;BME280;45247;47.466;19.004;2022-12-18T08:21:23;101870.00;;;-4.66;100.00
59443;BME280;45247;47.466;19.004;2022-12-18T08:23:52;101866.69;;;-4.62;100.00
59443;BME280;45247;47.466;19.004;2022-12-18T08:26:21;101868.56;;;-4.58;100.00
59443;BME280;45247;47.466;19.004;2022-12-18T08:28:50;101871.34;;;-4.50;100.00
59443;BME280;45247;47.466;19.004;2022-12-18T08:31:20;101874.25;;;-4.41;100.00
59443;BME280;45247;47.466;19.004;2022-12-18T08:33:51;101877.22;;;-4.29;100.00
59443;BME280;45247;47.466;19.004;2022-12-18T08:36:21;101879.31;;;-4.17;100.00
59443;BME280;45247;47.466;19.004;2022-12-18T08:38:50;101877.13;;;-4.05;100.00
59443;BME280;45247;47.466;19.004;2022-12-18T08:41:18;101878.41;;;-3.90;100.00
59443;BME280;45247;47.466;19.004;2022-12-18T08:43:46;101878.78;;;-3.78;100.00
59443;BME280;45247;47.466;19.004;2022-12-18T08:46:35;101880.97;;;-3.63;100.00
59443;BME280;45247;47.466;19.004;2022-12-18T08:49:04;101882.13;;;-3.54;100.00
59443;BME280;45247;47.466;19.004;2022-12-18T08:51:33;101880.75;;;-3.42;100.00
59443;BME280;45247;47.466;19.004;2022-12-18T08:54:03;101886.19;;;-3.32;100.00
59443;BME280;45247;47.466;19.004;2022-12-18T08:56:32;101886.41;;;-3.24;100.00
59443;BME280;45247;47.466;19.004;2022-12-18T08:59:01;101888.28;;;-3.18;100.00
59443;BME280;45247;47.466;19.004;2022-12-18T09:01:29;101890.16;;;-3.13;100.00
59443;BME280;45247;47.466;19.004;2022-12-18T09:04:00;101899.97;;;-3.01;100.00
59443;BME280;45247;47.466;19.004;2022-12-18T09:06:29;101905.44;;;-2.90;100.00
59443;BME280;45247;47.466;19.004;2022-12-18T09:08:57;101911.63;;;-2.84;100.00
59443;BME280;45247;47.466;19.004;2022-12-18T09:11:27;101912.31;;;-2.91;100.00
59443;BME280;45247;47.466;19.004;2022-12-18T09:13:56;101914.69;;;-2.98;100.00
59443;BME280;45247;47.466;19.004;2022-12-18T09:16:25;101914.00;;;-2.91;100.00
59443;BME280;45247;47.466;19.004;2022-12-18T09:19:00;101914.41;;;-2.78;100.00
59443;BME280;45247;47.466;19.004;2022-12-18T09:21:30;101907.78;;;-2.66;100.00
59443;BME280;45247;47.466;19.004;2022-12-18T09:24:01;101898.69;;;-2.52;100.00
59443;BME280;45247;47.466;19.004;2022-12-18T09:26:31;101902.41;;;-2.41;100.00
59443;BME280;45247;47.466;19.004;2022-12-18T09:28:59;101902.69;;;-2.30;100.00
59443;BME280;45247;47.466;19.004;2022-12-18T09:31:27;101906.34;;;-2.22;100.00
59443;BME280;45247;47.466;19.004;2022-12-18T09:33:56;101903.03;;;-2.15;100.00
59443;BME280;45247;47.466;19.004;2022-12-18T09:36:25;101900.66;;;-2.07;100.00
59443;BME280;45247;47.466;19.004;2022-12-18T09:38:53;101902.69;;;-1.94;100.00
59443;BME280;45247;47.466;19.004;2022-12-18T09:41:40;101894.22;;;-1.87;100.00
59443;BME280;45247;47.466;19.004;2022-12-18T09:44:18;101902.09;;;-1.82;100.00
59443;BME280;45247;47.466;19.004;2022-12-18T09:46:53;101907.25;;;-1.84;100.00
59443;BME280;45247;47.466;19.004;2022-12-18T09:49:26;101898.88;;;-1.72;100.00
59443;BME280;45247;47.466;19.004;2022-12-18T09:52:02;101901.59;;;-1.66;100.00
59443;BME280;45247;47.466;19.004;2022-12-18T09:54:35;101905.44;;;-1.48;100.00
59443;BME280;45247;47.466;19.004;2022-12-18T09:57:04;101904.78;;;-1.38;100.00
59443;BME280;45247;47.466;19.004;2022-12-18T09:59:36;101902.47;;;-1.24;100.00
59443;BME280;45247;47.466;19.004;2022-12-18T10:02:14;101905.19;;;-1.20;100.00
59443;BME280;45247;47.466;19.004;2022-12-18T10:04:50;101906.97;;;-1.16;100.00
59443;BME280;45247;47.466;19.004;2022-12-18T10:07:27;101906.22;;;-1.10;100.00
59443;BME280;45247;47.466;19.004;2022-12-18T10:10:02;101902.81;;;-1.08;100.00
59443;BME280;45247;47.466;19.004;2022-12-18T10:12:36;101896.09;;;-0.98;100.00
59443;BME280;45247;47.466;19.004;2022-12-18T10:15:14;101896.16;;;-0.95;100.00
59443;BME280;45247;47.466;19.004;2022-12-18T10:17:51;101907.53;;;-0.88;100.00
59443;BME280;45247;47.466;19.004;2022-12-18T10:20:28;101895.34;;;-0.92;100.00
59443;BME280;45247;47.466;19.004;2022-12-18T10:23:03;101897.94;;;-0.91;100.00
59443;BME280;45247;47.466;19.004;2022-12-18T10:25:42;101897.22;;;-0.85;100.00
59443;BME280;45247;47.466;19.004;2022-12-18T10:28:17;101888.75;;;-0.75;100.00
59443;BME280;45247;47.466;19.004;2022-12-18T10:30:46;101888.69;;;-0.78;100.00
59443;BME280;45247;47.466;19.004;2022-12-18T10:33:16;101884.50;;;-0.71;100.00
59443;BME280;45247;47.466;19.004;2022-12-18T10:35:47;101884.66;;;-0.61;100.00
59443;BME280;45247;47.466;19.004;2022-12-18T10:38:26;101892.53;;;-0.56;100.00
59443;BME280;45247;47.466;19.004;2022-12-18T10:40:57;101890.78;;;-0.59;100.00
59443;BME280;45247;47.466;19.004;2022-12-18T10:43:27;101894.38;;;-0.51;100.00
59443;BME280;45247;47.466;19.004;2022-12-18T10:46:12;101892.69;;;-0.48;100.00
59443;BME280;45247;47.466;19.004;2022-12-18T10:48:50;101889.41;;;-0.38;100.00
59443;BME280;45247;47.466;19.004;2022-12-18T10:51:21;101882.63;;;-0.29;100.00
59443;BME280;45247;47.466;19.004;2022-12-18T10:53:57;101886.19;;;-0.23;100.00
59443;BME280;45247;47.466;19.004;2022-12-18T10:56:28;101890.66;;;-0.15;100.00
59443;BME280;45247;47.466;19.004;2022-12-18T10:58:59;101886.38;;;-0.10;100.00
59443;BME280;45247;47.466;19.004;2022-12-18T11:01:28;101886.56;;;0.01;100.00
59443;BME280;45247;47.466;19.004;2022-12-18T11:04:00;101879.72;;;0.05;100.00
59443;BME280;45247;47.466;19.004;2022-12-18T11:06:33;101871.25;;;0.18;100.00
59443;BME280;45247;47.466;19.004;2022-12-18T11:09:05;101873.91;;;0.22;100.00
59443;BME280;45247;47.466;19.004;2022-12-18T11:11:40;101867.84;;;0.22;100.00
59443;BME280;45247;47.466;19.004;2022-12-18T11:14:15;101867.03;;;0.28;100.00
59443;BME280;45247;47.466;19.004;2022-12-18T11:16:47;101860.88;;;0.21;100.00
59443;BME280;45247;47.466;19.004;2022-12-18T11:19:37;101865.34;;;0.31;100.00
59443;BME280;45247;47.466;19.004;2022-12-18T11:22:19;101850.53;;;0.24;100.00
59443;BME280;45247;47.466;19.004;2022-12-18T11:24:55;101854.19;;;0.38;100.00
59443;BME280;45247;47.466;19.004;2022-12-18T11:27:48;101868.25;;;0.56;100.00
59443;BME280;45247;47.466;19.004;2022-12-18T11:30:22;101870.84;;;0.54;100.00
59443;BME280;45247;47.466;19.004;2022-12-18T11:32:58;101875.19;;;0.54;100.00
59443;BME280;45247;47.466;19.004;2022-12-18T11:35:36;101863.91;;;0.52;100.00
59443;BME280;45247;47.466;19.004;2022-12-18T11:38:17;101862.13;;;0.49;100.00
59443;BME280;45247;47.466;19.004;2022-12-18T11:40:53;101855.25;;;0.54;100.00
59443;BME280;45247;47.466;19.004;2022-12-18T11:43:27;101850.97;;;0.58;100.00
59443;BME280;45247;47.466;19.004;2022-12-18T11:46:01;101861.41;;;0.61;100.00
59443;BME280;45247;47.466;19.004;2022-12-18T11:48:33;101859.69;;;0.63;100.00
59443;BME280;45247;47.466;19.004;2022-12-18T11:51:04;101851.94;;;0.67;100.00
59443;BME280;45247;47.466;19.004;2022-12-18T11:53:36;101845.06;;;0.69;100.00
59443;BME280;45247;47.466;19.004;2022-12-18T11:56:29;101853.72;;;0.71;100.00
59443;BME280;45247;47.466;19.004;2022-12-18T11:59:07;101849.44;;;0.75;100.00
59443;BME280;45247;47.466;19.004;2022-12-18T12:01:45;101841.66;;;0.73;100.00
59443;BME280;45247;47.466;19.004;2022-12-18T12:04:45;101845.97;;;0.74;100.00
59443;BME280;45247;47.466;19.004;2022-12-18T12:07:25;101845.16;;;0.80;100.00
59443;BME280;45247;47.466;19.004;2022-12-18T12:10:00;101843.56;;;0.91;100.00
59443;BME280;45247;47.466;19.004;2022-12-18T12:12:39;101844.41;;;0.87;100.00
59443;BME280;45247;47.466;19.004;2022-12-18T12:15:25;101844.44;;;0.90;100.00
59443;BME280;45247;47.466;19.004;2022-12-18T12:18:03;101842.56;;;0.80;100.00
59443;BME280;45247;47.466;19.004;2022-12-18T12:20:44;101846.91;;;0.78;100.00
59443;BME280;45247;47.466;19.004;2022-12-18T12:23:20;101826.88;;;0.71;100.00
59443;BME280;45247;47.466;19.004;2022-12-18T12:25:58;101846.03;;;0.79;100.00
59443;BME280;45247;47.466;19.004;2022-12-18T12:31:37;101839.09;;;0.81;100.00
59443;BME280;45247;47.466;19.004;2022-12-18T12:34:16;101846.09;;;0.84;100.00
59443;BME280;45247;47.466;19.004;2022-12-18T12:36:55;101843.38;;;0.73;100.00
59443;BME280;45247;47.466;19.004;2022-12-18T12:39:31;101842.50;;;0.74;100.00
59443;BME280;45247;47.466;19.004;2022-12-18T12:42:02;101843.44;;;0.78;100.00
59443;BME280;45247;47.466;19.004;2022-12-18T12:44:54;101846.09;;;0.85;100.00
59443;BME280;45247;47.466;19.004;2022-12-18T12:47:26;101853.00;;;0.82;100.00
59443;BME280;45247;47.466;19.004;2022-12-18T12:49:56;101858.22;;;0.83;100.00
59443;BME280;45247;47.466;19.004;2022-12-18T12:52:32;101863.41;;;0.83;100.00
59443;BME280;45247;47.466;19.004;2022-12-18T12:55:04;101869.47;;;0.84;100.00